Yakutsk Airport
UEEE : now visible

Aeroporto :











RITROVATECI SU...

 
LOGIN :

Iscrizione | Disclaimer

   EN    FR    IT 

 









Sommario :    VFR   VFR Marginale   IFR   IFR Intensivo   IFR Molto Intensivo
Visibilità : 
Base nubi : 
>= 8 km
>= 3000ft
5 / 8 km
1000 / 3000 ft
1500m / 5 km
500 / 1000 ft
800 / 1500m
200 / 500 ft
< 800m
< 200 ft
Simboli :   Temporali  Nebbia  Neve Forte  Precipitazioni Forti  Vento > 20 kt






- Altitudine del aeroporto : 325 ft
- Codice IATA : YKS


UEEE - Yakutsk

ULTIMO METAR :
  • 260630Z 27002MPS CAVOK M22/M24 Q1020 R23L/490144 NOSIG RMK QFE756

METARs OBSOLETI :
  • 260600Z 28003MPS CAVOK M21/M24 Q1020 R23L/490144 NOSIG RMK QFE756
  • 260530Z 28003MPS CAVOK M21/M24 Q1020 R23L/490144 NOSIG RMK QFE756
  • 260500Z 27003MPS CAVOK M21/M24 Q1020 R23L/490144 NOSIG RMK QFE756
  • 260430Z 25003MPS CAVOK M21/M24 Q1020 R23L/490144 NOSIG RMK QFE756
  • 260400Z 26003MPS CAVOK M20/M23 Q1019 R23L/490144 NOSIG RMK QFE756

TAF TAF UEEE
Valido dal 26 a 06 ore il 27 a 12 ore UTC


260500Z 2606/2712 27005G10MPS 9999 SCT030 OVC070
TEMPO 2606/2615 -SN
FIR UEEE / Asia



MetMap, La meteo Aeronautica in un colpo d'occhio ! - Copyright ORBIFLY Dicembre 2007 - Disclaimer

ORBIFLY MET'MAP TEAM :

Programmazione e sviluppo : Alexandra Zaïnal
Concezione : Baudouin d'Aumeries
Aiuto per la programmazione : Marc-Olivier Méhu
Supporto tecnico e logistico : Manuel Goepfert
Aiuto per la traduzione : Arnaldo La Scala

Contatto : metmap@orbifly.com




FONTI E CREDITI :

   NOAA       Earth
Advisory